createdAt,value
2019-03-15T03:14:27.853Z,8.20
2019-03-15T03:15:27.836Z,8.18
2019-03-15T03:16:27.796Z,8.17
2019-03-15T03:17:27.807Z,8.11
2019-03-15T03:18:27.785Z,8.18
2019-03-15T03:19:28.322Z,8.15
2019-03-15T03:20:27.754Z,8.15
2019-03-15T03:21:27.763Z,8.12
2019-03-15T03:22:27.757Z,8.07
2019-03-15T03:23:27.733Z,8.12
2019-03-15T03:24:27.742Z,8.18
2019-03-15T03:25:27.732Z,8.15
2019-03-15T03:26:27.700Z,8.15
2019-03-15T03:27:27.693Z,8.18
2019-03-15T03:28:28.079Z,8.10
2019-03-15T03:29:27.682Z,8.15
2019-03-15T03:30:27.681Z,8.08
2019-03-15T03:31:27.671Z,8.08
2019-03-15T03:32:27.633Z,8.18
2019-03-15T03:33:27.633Z,8.04
2019-03-15T03:34:27.633Z,8.08
2019-03-15T03:35:27.628Z,8.12
2019-03-15T03:36:27.637Z,8.15
2019-03-15T03:37:27.593Z,8.17
2019-03-15T03:38:27.593Z,8.03
2019-03-15T03:39:27.578Z,8.10
2019-03-15T03:40:29.134Z,8.14
2019-03-15T03:41:27.564Z,8.22
2019-03-15T03:42:27.564Z,8.14
2019-03-15T03:43:27.540Z,8.22
2019-03-15T03:44:27.532Z,8.10
2019-03-15T03:45:27.526Z,8.12
2019-03-15T03:46:27.534Z,8.10
2019-03-15T03:47:27.541Z,8.14
2019-03-15T03:48:27.502Z,8.18
2019-03-15T03:49:27.616Z,8.11
2019-03-15T03:50:27.489Z,8.25
2019-03-15T03:51:27.472Z,8.28
2019-03-15T03:52:27.515Z,8.20
2019-03-15T03:53:27.451Z,8.17
2019-03-15T03:54:27.451Z,8.20
2019-03-15T03:55:27.439Z,8.17
2019-03-15T03:56:27.430Z,8.20
2019-03-15T03:57:27.431Z,8.14
2019-03-15T03:58:27.477Z,8.20
2019-03-15T03:59:27.403Z,8.26
2019-03-15T04:00:27.410Z,8.20
2019-03-15T04:01:27.385Z,8.20
2019-03-15T04:02:27.389Z,8.25
2019-03-15T04:03:27.378Z,8.21
2019-03-15T04:04:27.359Z,8.26
2019-03-15T04:05:27.375Z,8.26
2019-03-15T04:06:27.366Z,8.28
2019-03-15T04:07:27.351Z,8.26
2019-03-15T04:08:27.330Z,8.26
2019-03-15T04:09:27.350Z,8.28
2019-03-15T04:10:27.372Z,8.32
2019-03-15T04:11:27.314Z,8.28
2019-03-15T04:12:27.300Z,8.28
2019-03-15T04:13:27.322Z,8.28
2019-03-15T04:14:27.279Z,8.29
2019-03-15T04:15:27.279Z,8.33
2019-03-15T04:16:27.290Z,8.29
2019-03-15T04:17:27.258Z,8.35
2019-03-15T04:18:27.252Z,8.36
2019-03-15T04:19:27.238Z,8.37
2019-03-15T04:20:27.233Z,8.33
2019-03-15T04:21:27.218Z,8.37
2019-03-15T04:22:27.216Z,8.40
2019-03-15T04:23:27.203Z,8.39
2019-03-15T04:24:27.191Z,8.45
2019-03-15T04:25:27.216Z,8.40
2019-03-15T04:26:27.177Z,8.42
2019-03-15T04:27:27.167Z,8.42
2019-03-15T04:28:27.165Z,8.39
2019-03-15T04:29:27.156Z,8.40
2019-03-15T04:30:27.255Z,8.40
2019-03-15T04:31:27.130Z,8.42
2019-03-15T04:32:27.133Z,8.40
2019-03-15T04:33:27.118Z,8.44
2019-03-15T04:34:28.505Z,8.45
2019-03-15T04:35:27.262Z,8.50
2019-03-15T04:36:27.111Z,8.51
2019-03-15T04:37:27.125Z,8.51
2019-03-15T04:38:27.092Z,8.48
2019-03-15T04:39:27.065Z,8.48
2019-03-15T04:40:27.068Z,8.51
2019-03-15T04:41:27.052Z,8.51
2019-03-15T04:42:27.059Z,8.51
2019-03-15T04:43:27.053Z,8.47
2019-03-15T04:44:27.022Z,8.54
2019-03-15T04:45:27.028Z,8.50
2019-03-15T04:46:27.009Z,8.53
2019-03-15T04:47:27.007Z,8.50
2019-03-15T04:48:26.996Z,8.53
2019-03-15T04:49:26.989Z,8.50
2019-03-15T04:50:26.979Z,8.55
2019-03-15T04:51:26.970Z,8.50
2019-03-15T04:52:27.032Z,8.54
2019-03-15T04:53:26.949Z,8.54
2019-03-15T04:54:26.944Z,8.58
2019-03-15T04:55:26.943Z,8.57
2019-03-15T04:56:26.944Z,8.57
2019-03-15T04:57:26.915Z,8.51
2019-03-15T04:58:26.915Z,8.55
2019-03-15T04:59:26.904Z,8.53
2019-03-15T05:00:26.899Z,8.57
2019-03-15T05:01:26.880Z,8.65
2019-03-15T05:02:26.881Z,8.51
2019-03-15T05:03:26.887Z,8.66
2019-03-15T05:04:26.879Z,8.62
2019-03-15T05:05:26.857Z,8.65
2019-03-15T05:06:26.845Z,8.51
2019-03-15T05:07:26.833Z,8.62
2019-03-15T05:08:26.831Z,8.50
2019-03-15T05:09:26.848Z,8.60
2019-03-15T05:10:26.824Z,8.55
2019-03-15T05:11:26.802Z,8.54
2019-03-15T05:12:26.791Z,8.58
2019-03-15T05:13:26.790Z,8.58
2019-03-15T05:14:26.785Z,8.58
2019-03-15T05:15:26.775Z,8.53
2019-03-15T05:16:26.778Z,8.54
2019-03-15T05:17:26.750Z,8.42
2019-03-15T05:18:26.745Z,8.50
2019-03-15T05:19:26.736Z,8.45
2019-03-15T05:20:26.741Z,8.42
2019-03-15T05:21:26.729Z,8.42
2019-03-15T05:22:26.721Z,8.40
2019-03-15T05:23:26.712Z,8.42
2019-03-15T05:24:26.699Z,8.37
2019-03-15T05:25:29.711Z,8.30
2019-03-15T05:26:26.688Z,8.35
2019-03-15T05:27:26.681Z,8.32
2019-03-15T05:28:26.658Z,8.35
2019-03-15T05:29:26.655Z,8.33
2019-03-15T05:30:26.675Z,8.33
2019-03-15T05:31:26.637Z,8.35
2019-03-15T05:32:26.628Z,8.36
2019-03-15T05:33:26.619Z,8.33
2019-03-15T05:34:26.614Z,8.30
2019-03-15T05:35:26.611Z,8.30
2019-03-15T05:36:26.592Z,8.29
2019-03-15T05:37:26.585Z,8.32
2019-03-15T05:38:26.573Z,8.28
2019-03-15T05:39:26.559Z,8.29
2019-03-15T05:40:26.563Z,8.30
2019-03-15T05:41:26.558Z,8.29
2019-03-15T05:42:26.548Z,8.25
2019-03-15T05:43:26.542Z,8.30
2019-03-15T05:44:26.529Z,8.18
2019-03-15T05:45:26.519Z,8.26
2019-03-15T05:46:26.511Z,8.30
2019-03-15T05:47:26.512Z,8.28
2019-03-15T05:48:26.491Z,8.32
2019-03-15T05:49:26.494Z,8.28
2019-03-15T05:50:26.518Z,8.28
2019-03-15T05:51:26.515Z,8.32
2019-03-15T05:52:26.468Z,8.29
2019-03-15T05:53:26.493Z,8.26
2019-03-15T05:54:26.443Z,8.32
2019-03-15T05:55:26.429Z,8.20
2019-03-15T05:56:26.425Z,8.29
2019-03-15T05:57:26.421Z,8.25
2019-03-15T05:58:26.417Z,8.26
2019-03-15T05:59:26.393Z,8.26
2019-03-15T06:00:26.385Z,8.26
2019-03-15T06:01:26.378Z,8.26
2019-03-15T06:02:26.373Z,8.25
2019-03-15T06:03:26.369Z,8.26
2019-03-15T06:04:26.363Z,8.28
2019-03-15T06:05:26.350Z,8.22
2019-03-15T06:06:26.334Z,8.26
2019-03-15T06:07:26.329Z,8.21
2019-03-15T06:08:27.719Z,8.20
2019-03-15T06:09:26.314Z,8.21
2019-03-15T06:10:26.300Z,8.21
2019-03-15T06:11:26.293Z,8.26
2019-03-15T06:12:26.281Z,8.21
2019-03-15T06:13:26.282Z,8.17
2019-03-15T06:14:26.271Z,8.17
2019-03-15T06:15:26.266Z,8.21
2019-03-15T06:16:26.267Z,8.21
2019-03-15T06:17:26.241Z,8.18
2019-03-15T06:18:26.234Z,8.25
2019-03-15T06:19:26.221Z,8.25
2019-03-15T06:20:26.222Z,8.20
2019-03-15T06:21:26.260Z,8.20
2019-03-15T06:22:26.202Z,8.25
2019-03-15T06:23:26.195Z,8.21
2019-03-15T06:24:26.180Z,8.26
2019-03-15T06:25:26.252Z,8.28
2019-03-15T06:26:26.174Z,8.26
2019-03-15T06:27:26.161Z,8.28
2019-03-15T06:28:26.148Z,8.22
2019-03-15T06:29:26.162Z,8.15
2019-03-15T06:30:26.143Z,8.25
2019-03-15T06:31:26.148Z,8.29
2019-03-15T06:32:26.113Z,8.28
2019-03-15T06:33:28.566Z,8.32
2019-03-15T06:34:26.101Z,8.29
2019-03-15T06:35:26.097Z,8.32
2019-03-15T06:36:26.084Z,8.25
2019-03-15T06:37:26.072Z,8.25
2019-03-15T06:38:26.102Z,8.29
2019-03-15T06:39:26.059Z,8.22
2019-03-15T06:40:26.042Z,8.30
2019-03-15T06:41:26.037Z,8.30
2019-03-15T06:42:26.034Z,8.26
2019-03-15T06:43:26.029Z,8.30
2019-03-15T06:44:27.158Z,8.29
2019-03-15T06:45:26.003Z,8.33
2019-03-15T06:46:25.991Z,8.36
2019-03-15T06:47:25.981Z,8.33
2019-03-15T06:48:25.992Z,8.39
2019-03-15T06:49:25.986Z,8.29
2019-03-15T06:50:25.977Z,8.32
2019-03-15T06:51:25.989Z,8.44
2019-03-15T06:52:25.942Z,8.42
2019-03-15T06:53:25.958Z,8.39
2019-03-15T06:54:25.936Z,8.42
2019-03-15T06:55:25.974Z,8.39
2019-03-15T06:56:25.922Z,8.42
2019-03-15T06:57:25.897Z,8.32
2019-03-15T06:58:25.906Z,8.40
2019-03-15T06:59:25.893Z,8.44
2019-03-15T07:00:25.930Z,8.47
2019-03-15T07:01:25.883Z,8.51
2019-03-15T07:02:25.900Z,8.54
2019-03-15T07:03:25.913Z,8.51
2019-03-15T07:04:25.838Z,8.54
2019-03-15T07:05:25.847Z,8.53
2019-03-15T07:06:25.823Z,8.51
2019-03-15T07:07:25.827Z,8.51
2019-03-15T07:08:25.808Z,8.55
2019-03-15T07:09:25.826Z,8.50
2019-03-15T07:10:25.843Z,8.55
2019-03-15T07:11:25.781Z,8.50
2019-03-15T07:12:25.770Z,8.57
2019-03-15T07:13:25.771Z,8.58
2019-03-15T07:14:25.761Z,8.53
2019-03-15T07:15:25.756Z,8.51
2019-03-15T07:16:25.752Z,8.50
2019-03-15T07:17:25.759Z,8.54
2019-03-15T07:18:25.717Z,8.47
2019-03-15T07:19:30.216Z,8.54
2019-03-15T07:20:25.715Z,8.53
2019-03-15T07:21:25.696Z,8.55
2019-03-15T07:22:25.691Z,8.54
2019-03-15T07:23:25.697Z,8.58
2019-03-15T07:24:25.854Z,8.66
2019-03-15T07:25:25.755Z,8.63
2019-03-15T07:26:25.663Z,8.55
2019-03-15T07:27:25.671Z,8.63
2019-03-15T07:28:34.308Z,8.58
2019-03-15T07:30:30.145Z,8.54
2019-03-15T07:31:30.102Z,8.57
2019-03-15T07:32:31.066Z,8.60
2019-03-15T07:33:30.098Z,8.58
2019-03-15T07:34:30.075Z,8.65
2019-03-15T07:35:30.128Z,8.58
2019-03-15T07:36:30.070Z,8.63
2019-03-15T07:37:30.046Z,8.62
2019-03-15T07:38:30.043Z,8.65
2019-03-15T07:39:30.033Z,8.66
2019-03-15T07:40:30.034Z,8.69
2019-03-15T07:41:30.012Z,8.66
2019-03-15T07:42:30.010Z,8.75
2019-03-15T07:43:30.023Z,8.75
2019-03-15T07:44:29.998Z,8.75
2019-03-15T07:45:29.982Z,8.68
2019-03-15T07:46:29.973Z,8.69
2019-03-15T07:47:29.969Z,8.71
2019-03-15T07:48:29.964Z,8.88
2019-03-15T07:49:29.961Z,8.81
2019-03-15T07:50:29.943Z,8.76
2019-03-15T07:51:29.932Z,8.81
2019-03-15T07:52:29.931Z,8.78
2019-03-15T07:53:29.933Z,8.88
2019-03-15T07:54:37.860Z,8.87
2019-03-15T07:55:29.896Z,8.83
2019-03-15T07:56:29.891Z,8.87
2019-03-15T07:57:29.887Z,8.81
2019-03-15T07:58:29.880Z,8.88
2019-03-15T07:59:29.874Z,8.86
2019-03-15T08:00:29.880Z,8.75
2019-03-15T08:01:29.852Z,8.81
2019-03-15T08:02:29.847Z,8.86
2019-03-15T08:03:29.845Z,8.90
2019-03-15T08:04:29.833Z,8.87
2019-03-15T08:05:29.818Z,8.87
2019-03-15T08:06:34.887Z,8.90
2019-03-15T08:07:36.157Z,8.86
2019-03-15T08:08:29.879Z,8.94
2019-03-15T08:09:29.789Z,8.91
2019-03-15T08:10:29.789Z,8.96
2019-03-15T08:11:29.780Z,8.91
2019-03-15T08:12:29.771Z,8.91
2019-03-15T08:13:29.759Z,8.91
2019-03-15T08:14:29.745Z,8.90
2019-03-15T08:15:29.747Z,8.94
2019-03-15T08:16:29.730Z,8.94
2019-03-15T08:17:29.743Z,8.93
2019-03-15T08:18:29.721Z,8.96
2019-03-15T08:19:29.707Z,8.87
2019-03-15T08:20:29.713Z,8.91
2019-03-15T08:21:29.707Z,8.88
2019-03-15T08:22:29.726Z,8.86
2019-03-15T08:23:29.693Z,8.88
2019-03-15T08:24:29.676Z,8.90
2019-03-15T08:25:29.665Z,8.88
2019-03-15T08:26:30.323Z,8.86
2019-03-15T08:27:29.649Z,8.90
2019-03-15T08:28:29.637Z,8.88
2019-03-15T08:29:29.635Z,8.88
2019-03-15T08:30:29.620Z,8.87
2019-03-15T08:31:29.620Z,8.86
2019-03-15T08:32:29.604Z,8.93
2019-03-15T08:33:29.665Z,8.91
2019-03-15T08:34:29.592Z,8.91
2019-03-15T08:35:29.582Z,8.91
2019-03-15T08:36:29.577Z,8.96
2019-03-15T08:37:29.571Z,8.86
2019-03-15T08:38:29.587Z,8.90
2019-03-15T08:39:29.553Z,8.83
2019-03-15T08:40:29.548Z,8.86
2019-03-15T08:41:29.554Z,8.93
2019-03-15T08:42:29.543Z,8.86
2019-03-15T08:43:29.521Z,8.86
2019-03-15T08:44:29.517Z,8.84
2019-03-15T08:45:29.505Z,8.91
2019-03-15T08:46:29.491Z,8.96
2019-03-15T08:47:29.486Z,8.93
2019-03-15T08:48:31.887Z,8.90
2019-03-15T08:49:29.471Z,8.87
2019-03-15T08:50:29.485Z,8.96
2019-03-15T08:51:29.468Z,8.97
2019-03-15T08:52:29.454Z,8.91
2019-03-15T08:53:29.470Z,8.91
2019-03-15T08:54:29.606Z,9.02
2019-03-15T08:55:29.439Z,9.02
2019-03-15T08:56:29.418Z,9.05
2019-03-15T08:57:29.411Z,9.04
2019-03-15T08:58:29.426Z,9.12
2019-03-15T08:59:29.567Z,9.10
2019-03-15T09:00:29.401Z,9.09
2019-03-15T09:01:29.377Z,9.10
2019-03-15T09:02:29.367Z,9.18
2019-03-15T09:03:29.360Z,9.18
2019-03-15T09:04:29.356Z,9.21
2019-03-15T09:05:29.382Z,9.28
2019-03-15T09:06:29.342Z,9.24
2019-03-15T09:07:29.333Z,9.20
2019-03-15T09:08:29.337Z,9.20
2019-03-15T09:09:29.378Z,9.21
2019-03-15T09:10:29.310Z,9.25
2019-03-15T09:11:29.300Z,9.30
2019-03-15T09:12:29.299Z,9.28
2019-03-15T09:13:29.288Z,9.34
2019-03-15T09:14:29.286Z,9.38
2019-03-15T09:15:30.913Z,9.35
2019-03-15T09:16:29.285Z,9.40
2019-03-15T09:17:29.253Z,9.39
2019-03-15T09:18:29.239Z,9.38
2019-03-15T09:19:29.508Z,9.38
2019-03-15T09:20:30.358Z,9.48
2019-03-15T09:21:29.226Z,9.49
2019-03-15T09:22:29.221Z,9.53
2019-03-15T09:23:29.204Z,9.48
2019-03-15T09:24:29.201Z,9.46
2019-03-15T09:25:29.197Z,9.58
2019-03-15T09:26:29.201Z,9.58
2019-03-15T09:27:29.189Z,9.60
2019-03-15T09:28:29.172Z,9.61
2019-03-15T09:29:29.175Z,9.64
2019-03-15T09:30:29.157Z,9.64
2019-03-15T09:31:33.620Z,9.56
2019-03-15T09:32:29.146Z,9.60
2019-03-15T09:33:29.164Z,9.75
2019-03-15T09:34:29.129Z,9.68
2019-03-15T09:35:29.117Z,9.71
2019-03-15T09:36:29.117Z,9.68
2019-03-15T09:37:29.110Z,9.76
2019-03-15T09:38:29.111Z,9.78
2019-03-15T09:39:29.092Z,9.75
2019-03-15T09:40:29.084Z,9.82
2019-03-15T09:41:33.445Z,9.83
2019-03-15T09:42:29.076Z,9.82
2019-03-15T09:43:29.061Z,9.91
2019-03-15T09:44:29.054Z,9.93
2019-03-15T09:45:29.081Z,10.00
2019-03-15T09:46:29.035Z,9.94
2019-03-15T09:47:29.040Z,9.94
2019-03-15T09:48:29.029Z,10.03
2019-03-15T09:49:29.018Z,10.00
2019-03-15T09:50:36.135Z,10.04
2019-03-15T09:51:29.036Z,10.04
2019-03-15T09:52:29.002Z,10.01
2019-03-15T09:53:28.988Z,10.18
2019-03-15T09:54:28.990Z,10.12
2019-03-15T09:55:33.131Z,10.21
2019-03-15T09:56:28.971Z,10.18
2019-03-15T09:57:38.625Z,10.28
2019-03-15T09:59:33.450Z,10.37
2019-03-15T10:00:33.421Z,10.37
2019-03-15T10:01:35.078Z,10.34
2019-03-15T10:02:33.412Z,10.40
2019-03-15T10:03:33.396Z,10.33
2019-03-15T10:04:35.856Z,10.33
2019-03-15T10:05:33.389Z,10.33
2019-03-15T10:06:33.391Z,10.42
2019-03-15T10:07:38.829Z,10.39
2019-03-15T10:08:33.379Z,10.43
2019-03-15T10:09:45.335Z,10.36
2019-03-15T10:10:33.403Z,10.42
2019-03-15T10:11:33.345Z,10.36
2019-03-15T10:12:33.340Z,10.42
2019-03-15T10:13:33.336Z,10.46
2019-03-15T10:14:33.329Z,10.44
2019-03-15T10:15:33.392Z,10.55
2019-03-15T10:16:33.334Z,10.53
2019-03-15T10:17:33.310Z,10.53
2019-03-15T10:18:33.300Z,10.52
2019-03-15T10:19:33.294Z,10.58
2019-03-15T10:20:33.305Z,10.52
2019-03-15T10:21:33.285Z,10.65
2019-03-15T10:22:33.317Z,10.63
2019-03-15T10:23:33.271Z,10.62
2019-03-15T10:24:33.273Z,10.66
2019-03-15T10:25:46.237Z,10.59
2019-03-15T10:26:33.250Z,10.63
2019-03-15T10:27:33.244Z,10.65
2019-03-15T10:28:33.250Z,10.63
2019-03-15T10:29:33.236Z,10.70
2019-03-15T10:30:33.220Z,10.70
2019-03-15T10:31:33.227Z,10.70
2019-03-15T10:32:33.216Z,10.74
2019-03-15T10:33:33.201Z,10.70
2019-03-15T10:34:35.581Z,10.73
2019-03-15T10:35:33.190Z,10.80
2019-03-15T10:36:34.699Z,10.71
2019-03-15T10:37:33.182Z,10.68
2019-03-15T10:38:33.169Z,10.77
2019-03-15T10:39:33.161Z,10.74
2019-03-15T10:40:33.169Z,10.78
2019-03-15T10:41:33.156Z,10.74
2019-03-15T10:42:33.168Z,10.76
2019-03-15T10:43:33.158Z,10.88
2019-03-15T10:44:33.135Z,10.86
2019-03-15T10:45:33.126Z,10.89
2019-03-15T10:46:33.132Z,10.88
2019-03-15T10:47:33.120Z,10.84
2019-03-15T10:48:33.110Z,10.88
2019-03-15T10:49:33.105Z,10.96
2019-03-15T10:50:33.093Z,10.89
2019-03-15T10:51:33.096Z,10.99
2019-03-15T10:52:33.076Z,10.95
2019-03-15T10:53:33.097Z,10.95
2019-03-15T10:54:33.086Z,10.98
2019-03-15T10:55:33.061Z,10.96
2019-03-15T10:56:33.055Z,10.98
2019-03-15T10:57:33.057Z,10.98
2019-03-15T10:58:33.045Z,10.99
2019-03-15T10:59:33.031Z,11.01
2019-03-15T11:00:33.035Z,11.03
2019-03-15T11:01:33.054Z,11.01
2019-03-15T11:02:33.012Z,11.03
2019-03-15T11:03:33.006Z,11.02
2019-03-15T11:04:33.036Z,10.95
2019-03-15T11:05:32.994Z,11.07
2019-03-15T11:06:32.988Z,11.03
2019-03-15T11:07:32.988Z,11.10
2019-03-15T11:08:32.975Z,11.03
2019-03-15T11:09:32.971Z,11.07
2019-03-15T11:10:32.965Z,11.11
2019-03-15T11:11:32.979Z,11.16
2019-03-15T11:12:32.969Z,11.11
2019-03-15T11:13:32.939Z,11.19
2019-03-15T11:14:32.943Z,11.21
2019-03-15T11:15:32.929Z,11.25
2019-03-15T11:16:32.931Z,11.27
2019-03-15T11:17:32.921Z,11.29
2019-03-15T11:18:32.913Z,11.24
2019-03-15T11:19:32.932Z,11.25
2019-03-15T11:20:32.921Z,11.27
2019-03-15T11:21:32.908Z,11.29
2019-03-15T11:22:32.892Z,11.34
2019-03-15T11:23:32.882Z,11.38
2019-03-15T11:24:32.872Z,11.29
2019-03-15T11:25:32.878Z,11.24
2019-03-15T11:26:32.884Z,11.28
2019-03-15T11:27:32.874Z,11.29
2019-03-15T11:28:32.848Z,11.32
2019-03-15T11:29:32.845Z,11.31
2019-03-15T11:30:32.839Z,11.35
2019-03-15T11:31:32.845Z,11.35
2019-03-15T11:32:32.926Z,11.36
2019-03-15T11:33:32.827Z,11.31
2019-03-15T11:34:32.850Z,11.31
2019-03-15T11:35:32.855Z,11.32
2019-03-15T11:36:32.861Z,11.38
2019-03-15T11:37:32.802Z,11.28
2019-03-15T11:38:32.792Z,11.31
2019-03-15T11:39:32.778Z,11.31
2019-03-15T11:40:32.834Z,11.32
2019-03-15T11:41:32.772Z,11.36
2019-03-15T11:42:32.764Z,11.44
2019-03-15T11:43:32.768Z,11.38
2019-03-15T11:44:32.748Z,11.44
2019-03-15T11:45:32.767Z,11.36
2019-03-15T11:46:32.751Z,11.35
2019-03-15T11:47:50.017Z,11.32
2019-03-15T11:48:32.738Z,11.36
2019-03-15T11:49:32.719Z,11.35
2019-03-15T11:50:32.737Z,11.35
2019-03-15T11:51:32.722Z,11.35
2019-03-15T11:52:32.772Z,11.43
2019-03-15T11:53:32.696Z,11.35
2019-03-15T11:54:32.693Z,11.38
2019-03-15T11:55:32.702Z,11.38
2019-03-15T11:56:32.692Z,11.36
2019-03-15T11:57:32.673Z,11.44
2019-03-15T11:58:32.666Z,11.39
2019-03-15T11:59:35.988Z,11.47
2019-03-15T12:00:32.656Z,11.49
2019-03-15T12:01:32.670Z,11.38
2019-03-15T12:02:32.644Z,11.49
2019-03-15T12:03:32.650Z,11.49
2019-03-15T12:04:32.641Z,11.49
2019-03-15T12:05:32.635Z,11.46
2019-03-15T12:06:32.619Z,11.46
2019-03-15T12:07:32.606Z,11.44
2019-03-15T12:08:32.646Z,11.43
2019-03-15T12:09:32.605Z,11.46
2019-03-15T12:10:32.594Z,11.46
2019-03-15T12:11:32.588Z,11.50
2019-03-15T12:12:32.606Z,11.47
2019-03-15T12:13:32.583Z,11.53
2019-03-15T12:14:41.038Z,11.64
2019-03-15T12:15:32.561Z,11.50
2019-03-15T12:16:32.564Z,11.50
2019-03-15T12:17:32.554Z,11.54
2019-03-15T12:18:32.556Z,11.52
2019-03-15T12:19:32.544Z,11.59
2019-03-15T12:20:32.601Z,11.65
2019-03-15T12:21:32.529Z,11.65
2019-03-15T12:22:32.540Z,11.68
2019-03-15T12:23:32.514Z,11.71
2019-03-15T12:24:32.518Z,11.78
2019-03-15T12:25:32.505Z,11.80
2019-03-15T12:26:40.862Z,11.75
2019-03-15T12:27:41.136Z,11.77
2019-03-15T12:29:36.980Z,11.85
2019-03-15T12:30:36.952Z,11.80
2019-03-15T12:31:36.945Z,11.77
2019-03-15T12:32:36.949Z,11.75
2019-03-15T12:33:36.944Z,11.87
2019-03-15T12:34:36.925Z,11.86
2019-03-15T12:35:36.922Z,11.75
2019-03-15T12:36:36.928Z,11.87
2019-03-15T12:37:36.912Z,11.75
2019-03-15T12:38:36.913Z,11.86
2019-03-15T12:39:36.901Z,11.82
2019-03-15T12:40:36.896Z,11.77
2019-03-15T12:41:36.891Z,11.80
2019-03-15T12:42:36.882Z,11.78
2019-03-15T12:43:36.936Z,11.86
2019-03-15T12:44:36.877Z,11.86
2019-03-15T12:45:36.866Z,11.83
2019-03-15T12:46:36.875Z,11.94
2019-03-15T12:47:36.865Z,11.78
2019-03-15T12:48:36.847Z,11.78
2019-03-15T12:49:36.850Z,11.86
2019-03-15T12:50:36.838Z,11.85
2019-03-15T12:51:36.826Z,11.94
2019-03-15T12:52:46.463Z,11.85
2019-03-15T12:53:36.814Z,11.85
2019-03-15T12:54:36.854Z,11.87
2019-03-15T12:55:36.805Z,11.93
2019-03-15T12:56:36.805Z,11.85
2019-03-15T12:57:36.799Z,12.02
2019-03-15T12:58:36.804Z,11.94
2019-03-15T12:59:36.780Z,11.90
2019-03-15T13:00:36.771Z,11.97
2019-03-15T13:01:36.806Z,11.93
2019-03-15T13:02:36.763Z,11.94
2019-03-15T13:03:36.758Z,11.97
2019-03-15T13:04:36.751Z,11.96
2019-03-15T13:05:36.756Z,11.93
2019-03-15T13:06:36.755Z,11.97
2019-03-15T13:07:36.748Z,11.94
2019-03-15T13:08:36.727Z,11.90
2019-03-15T13:09:36.744Z,11.99
2019-03-15T13:10:36.717Z,11.90
2019-03-15T13:11:36.717Z,12.01
2019-03-15T13:12:36.700Z,11.97
2019-03-15T13:13:36.705Z,11.96
2019-03-15T13:14:36.700Z,12.01
2019-03-15T13:15:36.690Z,12.01
2019-03-15T13:16:36.681Z,11.96
2019-03-15T13:17:36.672Z,12.01
2019-03-15T13:18:36.668Z,11.96
2019-03-15T13:19:36.663Z,11.96
2019-03-15T13:20:36.665Z,12.05
2019-03-15T13:21:36.675Z,12.04
2019-03-15T13:22:36.647Z,12.06
2019-03-15T13:23:36.634Z,12.05
2019-03-15T13:24:36.635Z,12.11
2019-03-15T13:25:36.620Z,12.08
2019-03-15T13:26:36.622Z,12.15
2019-03-15T13:27:36.617Z,12.09
2019-03-15T13:28:36.631Z,12.09
2019-03-15T13:29:36.621Z,12.01
2019-03-15T13:30:36.609Z,12.04
2019-03-15T13:31:36.588Z,12.02
2019-03-15T13:32:36.582Z,12.11
2019-03-15T13:33:36.583Z,12.09
2019-03-15T13:34:36.576Z,12.13
2019-03-15T13:35:36.579Z,12.06
2019-03-15T13:36:36.567Z,12.05
2019-03-15T13:37:36.560Z,12.06
2019-03-15T13:38:36.557Z,12.02
2019-03-15T13:39:36.543Z,12.08
2019-03-15T13:40:36.549Z,12.12
2019-03-15T13:41:36.530Z,12.02
2019-03-15T13:42:36.556Z,12.12
2019-03-15T13:43:36.558Z,12.11
2019-03-15T13:44:36.529Z,11.99
2019-03-15T13:45:36.518Z,12.09
2019-03-15T13:46:36.528Z,12.05
2019-03-15T13:47:36.511Z,12.01
2019-03-15T13:48:36.541Z,12.12
2019-03-15T13:49:36.507Z,12.01
2019-03-15T13:50:36.488Z,12.02
2019-03-15T13:51:36.484Z,12.06
2019-03-15T13:52:36.515Z,12.06
2019-03-15T13:53:36.483Z,12.08
2019-03-15T13:54:36.463Z,12.04
2019-03-15T13:55:36.457Z,12.09
2019-03-15T13:56:36.467Z,11.96
2019-03-15T13:57:36.449Z,12.06
2019-03-15T13:58:36.433Z,12.08
2019-03-15T13:59:36.438Z,12.05
2019-03-15T14:00:36.427Z,12.11
2019-03-15T14:01:36.451Z,12.06
2019-03-15T14:02:36.421Z,12.11
2019-03-15T14:03:36.413Z,12.11
2019-03-15T14:04:36.402Z,12.11
2019-03-15T14:05:36.400Z,12.08
2019-03-15T14:06:36.393Z,12.04
2019-03-15T14:07:36.399Z,12.05
2019-03-15T14:08:36.374Z,12.01
2019-03-15T14:09:36.372Z,12.15
2019-03-15T14:10:48.647Z,12.13
2019-03-15T14:11:36.374Z,12.21
2019-03-15T14:12:36.376Z,12.06
2019-03-15T14:13:36.351Z,12.08
2019-03-15T14:14:36.346Z,12.12
2019-03-15T14:15:36.377Z,12.11
2019-03-15T14:16:36.344Z,12.15
2019-03-15T14:17:36.331Z,12.13
2019-03-15T14:18:36.324Z,12.13
2019-03-15T14:19:36.335Z,12.12
2019-03-15T14:20:36.338Z,12.09
2019-03-15T14:21:36.364Z,12.09
2019-03-15T14:22:36.302Z,12.16
2019-03-15T14:23:36.291Z,12.12
2019-03-15T14:24:36.300Z,12.13
2019-03-15T14:25:36.283Z,12.19
2019-03-15T14:26:36.279Z,12.19
2019-03-15T14:27:37.816Z,12.13
2019-03-15T14:28:36.264Z,12.08
2019-03-15T14:29:36.291Z,12.11
2019-03-15T14:30:36.255Z,12.13
2019-03-15T14:31:36.249Z,12.12
2019-03-15T14:32:36.244Z,12.15
2019-03-15T14:33:36.278Z,12.12
2019-03-15T14:34:36.232Z,12.20
2019-03-15T14:35:36.230Z,12.16
2019-03-15T14:36:36.247Z,12.11
2019-03-15T14:37:36.407Z,12.12
2019-03-15T14:38:36.353Z,12.12
2019-03-15T14:39:36.266Z,12.16
2019-03-15T14:40:36.298Z,12.19
2019-03-15T14:41:36.208Z,12.16
2019-03-15T14:42:36.291Z,12.11
2019-03-15T14:43:36.381Z,12.09
2019-03-15T14:44:36.275Z,12.20
2019-03-15T14:45:36.212Z,12.13
2019-03-15T14:46:36.196Z,12.09
2019-03-15T14:47:36.193Z,12.09
2019-03-15T14:48:36.169Z,12.11
2019-03-15T14:49:38.170Z,12.12
2019-03-15T14:50:36.136Z,12.09
2019-03-15T14:51:36.150Z,12.20
2019-03-15T14:52:36.133Z,12.12
2019-03-15T14:53:36.127Z,12.09
2019-03-15T14:54:36.156Z,12.15
2019-03-15T14:55:36.135Z,12.09
2019-03-15T14:56:36.137Z,12.08
2019-03-15T14:57:36.102Z,12.08
2019-03-15T14:58:36.096Z,12.06
2019-03-15T14:59:36.090Z,12.08
2019-03-15T15:00:36.111Z,12.11
2019-03-15T15:01:36.079Z,12.06
2019-03-15T15:02:36.073Z,12.06
2019-03-15T15:03:36.073Z,12.06
2019-03-15T15:04:36.099Z,12.09
2019-03-15T15:05:36.064Z,12.01
2019-03-15T15:06:36.070Z,12.05
2019-03-15T15:07:36.084Z,12.02
2019-03-15T15:08:36.053Z,12.06
2019-03-15T15:09:36.061Z,12.06
2019-03-15T15:10:36.025Z,12.02
2019-03-15T15:11:36.025Z,11.96
2019-03-15T15:12:36.047Z,12.06
2019-03-15T15:13:36.106Z,11.97
2019-03-15T15:14:36.002Z,12.05
2019-03-15T15:15:36.012Z,12.05
2019-03-15T15:16:36.019Z,11.99
2019-03-15T15:17:36.020Z,12.04
2019-03-15T15:18:36.002Z,12.09
2019-03-15T15:19:35.981Z,12.04
2019-03-15T15:20:36.004Z,12.06
2019-03-15T15:21:35.961Z,12.09
2019-03-15T15:22:35.972Z,12.06
2019-03-15T15:23:35.951Z,12.11
2019-03-15T15:24:35.951Z,12.11
2019-03-15T15:25:35.936Z,12.06
2019-03-15T15:26:35.945Z,12.11
2019-03-15T15:27:35.926Z,12.11
2019-03-15T15:28:35.920Z,12.05
2019-03-15T15:29:35.915Z,12.02
2019-03-15T15:30:35.902Z,12.02
2019-03-15T15:31:35.902Z,12.06
2019-03-15T15:32:35.894Z,12.09
2019-03-15T15:33:35.884Z,12.08
2019-03-15T15:34:35.882Z,12.08
2019-03-15T15:35:35.871Z,12.09
2019-03-15T15:36:35.904Z,12.11
2019-03-15T15:37:35.863Z,12.06
2019-03-15T15:38:35.864Z,12.06
2019-03-15T15:39:35.855Z,12.06
2019-03-15T15:40:35.848Z,12.01
2019-03-15T15:41:35.839Z,12.11
2019-03-15T15:42:35.838Z,11.99
2019-03-15T15:43:35.826Z,12.04
2019-03-15T15:44:35.834Z,12.01
2019-03-15T15:45:35.819Z,11.96
2019-03-15T15:46:35.818Z,11.99
2019-03-15T15:47:35.814Z,11.96
2019-03-15T15:48:35.825Z,12.01
2019-03-15T15:49:35.805Z,11.94
2019-03-15T15:50:35.788Z,11.99
2019-03-15T15:51:35.784Z,11.96
2019-03-15T15:52:35.791Z,11.94
2019-03-15T15:53:35.770Z,11.96
2019-03-15T15:54:35.767Z,11.90
2019-03-15T15:55:35.758Z,11.94
2019-03-15T15:56:35.766Z,11.94
2019-03-15T15:57:35.789Z,11.96
2019-03-15T15:58:35.739Z,11.87
2019-03-15T15:59:35.746Z,11.86
2019-03-15T16:00:35.733Z,11.89
2019-03-15T16:01:35.732Z,11.97
2019-03-15T16:02:35.734Z,11.93
2019-03-15T16:03:35.705Z,11.90
2019-03-15T16:04:35.704Z,11.86
2019-03-15T16:05:35.693Z,11.94
2019-03-15T16:06:35.689Z,11.94
2019-03-15T16:07:35.688Z,11.94
2019-03-15T16:08:35.679Z,12.01
2019-03-15T16:09:35.675Z,11.90
2019-03-15T16:10:35.683Z,11.93
2019-03-15T16:11:35.673Z,11.96
2019-03-15T16:12:35.664Z,11.96
2019-03-15T16:13:35.685Z,11.93
2019-03-15T16:14:35.643Z,11.94
2019-03-15T16:15:35.647Z,11.94
2019-03-15T16:16:35.643Z,11.89
2019-03-15T16:17:35.620Z,11.93
2019-03-15T16:18:35.717Z,11.99
2019-03-15T16:19:35.618Z,11.96
2019-03-15T16:20:35.613Z,11.94
2019-03-15T16:21:35.599Z,11.89
2019-03-15T16:22:35.605Z,11.97